sensor_id;sensor_type;location;lat;lon;timestamp;P1;durP1;ratioP1;P2;durP2;ratioP2
66272;SDS011;58450;52.150;4.466;2023-09-18T00:01:30;21.75;;;16.38;;
66272;SDS011;58450;52.150;4.466;2023-09-18T00:03:58;23.25;;;16.73;;
66272;SDS011;58450;52.150;4.466;2023-09-18T00:06:25;22.20;;;15.98;;
66272;SDS011;58450;52.150;4.466;2023-09-18T00:08:54;23.85;;;17.48;;
66272;SDS011;58450;52.150;4.466;2023-09-18T00:11:22;23.90;;;18.05;;
66272;SDS011;58450;52.150;4.466;2023-09-18T00:13:49;23.83;;;17.55;;
66272;SDS011;58450;52.150;4.466;2023-09-18T00:16:17;22.52;;;17.27;;
66272;SDS011;58450;52.150;4.466;2023-09-18T00:18:45;21.15;;;15.70;;
66272;SDS011;58450;52.150;4.466;2023-09-18T00:21:12;23.20;;;16.63;;
66272;SDS011;58450;52.150;4.466;2023-09-18T00:23:40;24.73;;;18.83;;
66272;SDS011;58450;52.150;4.466;2023-09-18T00:26:09;22.30;;;16.92;;
66272;SDS011;58450;52.150;4.466;2023-09-18T00:28:36;21.58;;;16.63;;
66272;SDS011;58450;52.150;4.466;2023-09-18T00:31:04;19.60;;;14.65;;
66272;SDS011;58450;52.150;4.466;2023-09-18T00:33:32;19.25;;;14.57;;
66272;SDS011;58450;52.150;4.466;2023-09-18T00:35:59;18.35;;;13.45;;
66272;SDS011;58450;52.150;4.466;2023-09-18T00:38:27;18.23;;;13.52;;
66272;SDS011;58450;52.150;4.466;2023-09-18T00:40:54;19.20;;;13.80;;
66272;SDS011;58450;52.150;4.466;2023-09-18T00:43:23;18.55;;;14.27;;
66272;SDS011;58450;52.150;4.466;2023-09-18T00:45:51;19.17;;;14.73;;
66272;SDS011;58450;52.150;4.466;2023-09-18T00:48:19;17.45;;;14.13;;
66272;SDS011;58450;52.150;4.466;2023-09-18T00:50:48;20.17;;;13.20;;
66272;SDS011;58450;52.150;4.466;2023-09-18T00:53:16;18.65;;;14.30;;
66272;SDS011;58450;52.150;4.466;2023-09-18T00:55:49;21.07;;;14.97;;
66272;SDS011;58450;52.150;4.466;2023-09-18T00:58:20;19.38;;;14.73;;
66272;SDS011;58450;52.150;4.466;2023-09-18T01:00:50;21.00;;;15.10;;
66272;SDS011;58450;52.150;4.466;2023-09-18T01:03:18;18.60;;;14.30;;
66272;SDS011;58450;52.150;4.466;2023-09-18T01:05:48;17.63;;;13.35;;
66272;SDS011;58450;52.150;4.466;2023-09-18T01:08:16;17.90;;;13.80;;
66272;SDS011;58450;52.150;4.466;2023-09-18T01:10:45;17.63;;;13.65;;
66272;SDS011;58450;52.150;4.466;2023-09-18T01:13:27;18.75;;;14.30;;
66272;SDS011;58450;52.150;4.466;2023-09-18T01:16:06;20.15;;;15.60;;
66272;SDS011;58450;52.150;4.466;2023-09-18T01:18:48;22.35;;;16.38;;
66272;SDS011;58450;52.150;4.466;2023-09-18T01:21:18;19.95;;;15.20;;
66272;SDS011;58450;52.150;4.466;2023-09-18T01:23:48;20.00;;;14.95;;
66272;SDS011;58450;52.150;4.466;2023-09-18T01:26:17;21.48;;;15.77;;
66272;SDS011;58450;52.150;4.466;2023-09-18T01:28:44;19.92;;;15.48;;
66272;SDS011;58450;52.150;4.466;2023-09-18T01:31:12;20.90;;;15.73;;
66272;SDS011;58450;52.150;4.466;2023-09-18T01:33:40;20.73;;;15.93;;
66272;SDS011;58450;52.150;4.466;2023-09-18T01:36:10;20.95;;;15.23;;
66272;SDS011;58450;52.150;4.466;2023-09-18T01:38:40;21.50;;;14.93;;
66272;SDS011;58450;52.150;4.466;2023-09-18T01:41:10;19.05;;;15.35;;
66272;SDS011;58450;52.150;4.466;2023-09-18T01:43:38;20.70;;;16.83;;
66272;SDS011;58450;52.150;4.466;2023-09-18T01:46:05;19.48;;;15.32;;
66272;SDS011;58450;52.150;4.466;2023-09-18T01:48:33;19.27;;;14.65;;
66272;SDS011;58450;52.150;4.466;2023-09-18T01:51:01;18.73;;;15.02;;
66272;SDS011;58450;52.150;4.466;2023-09-18T01:53:28;18.45;;;13.95;;
66272;SDS011;58450;52.150;4.466;2023-09-18T01:55:56;19.27;;;14.63;;
66272;SDS011;58450;52.150;4.466;2023-09-18T01:58:25;20.05;;;14.65;;
66272;SDS011;58450;52.150;4.466;2023-09-18T02:00:53;18.25;;;13.20;;
66272;SDS011;58450;52.150;4.466;2023-09-18T02:03:21;17.58;;;13.10;;
66272;SDS011;58450;52.150;4.466;2023-09-18T02:05:48;17.70;;;13.70;;
66272;SDS011;58450;52.150;4.466;2023-09-18T02:08:16;18.33;;;12.38;;
66272;SDS011;58450;52.150;4.466;2023-09-18T02:10:43;17.48;;;12.68;;
66272;SDS011;58450;52.150;4.466;2023-09-18T02:13:11;16.38;;;12.88;;
66272;SDS011;58450;52.150;4.466;2023-09-18T02:15:40;16.58;;;11.63;;
66272;SDS011;58450;52.150;4.466;2023-09-18T02:18:08;17.08;;;12.38;;
66272;SDS011;58450;52.150;4.466;2023-09-18T02:20:39;15.20;;;12.07;;
66272;SDS011;58450;52.150;4.466;2023-09-18T02:23:07;18.33;;;13.70;;
66272;SDS011;58450;52.150;4.466;2023-09-18T02:25:35;19.30;;;13.52;;
66272;SDS011;58450;52.150;4.466;2023-09-18T02:28:03;17.98;;;12.70;;
66272;SDS011;58450;52.150;4.466;2023-09-18T02:30:31;16.80;;;12.35;;
66272;SDS011;58450;52.150;4.466;2023-09-18T02:32:59;17.00;;;12.80;;
66272;SDS011;58450;52.150;4.466;2023-09-18T02:35:29;15.50;;;12.38;;
66272;SDS011;58450;52.150;4.466;2023-09-18T02:37:57;16.27;;;12.65;;
66272;SDS011;58450;52.150;4.466;2023-09-18T02:40:25;17.50;;;13.13;;
66272;SDS011;58450;52.150;4.466;2023-09-18T02:42:53;16.67;;;12.57;;
66272;SDS011;58450;52.150;4.466;2023-09-18T02:45:21;16.27;;;11.88;;
66272;SDS011;58450;52.150;4.466;2023-09-18T02:47:48;18.50;;;13.73;;
66272;SDS011;58450;52.150;4.466;2023-09-18T02:50:17;15.88;;;12.95;;
66272;SDS011;58450;52.150;4.466;2023-09-18T02:52:45;15.30;;;12.40;;
66272;SDS011;58450;52.150;4.466;2023-09-18T02:55:13;15.50;;;11.77;;
66272;SDS011;58450;52.150;4.466;2023-09-18T02:57:40;15.70;;;12.38;;
66272;SDS011;58450;52.150;4.466;2023-09-18T03:00:08;16.50;;;11.98;;
66272;SDS011;58450;52.150;4.466;2023-09-18T03:02:37;16.02;;;11.60;;
66272;SDS011;58450;52.150;4.466;2023-09-18T03:05:05;14.27;;;11.23;;
66272;SDS011;58450;52.150;4.466;2023-09-18T03:07:35;14.45;;;10.50;;
66272;SDS011;58450;52.150;4.466;2023-09-18T03:10:03;14.30;;;11.13;;
66272;SDS011;58450;52.150;4.466;2023-09-18T03:12:33;13.35;;;10.50;;
66272;SDS011;58450;52.150;4.466;2023-09-18T03:15:00;13.73;;;11.23;;
66272;SDS011;58450;52.150;4.466;2023-09-18T03:17:29;14.55;;;11.50;;
66272;SDS011;58450;52.150;4.466;2023-09-18T03:19:57;14.38;;;11.15;;
66272;SDS011;58450;52.150;4.466;2023-09-18T03:22:25;13.95;;;10.48;;
66272;SDS011;58450;52.150;4.466;2023-09-18T03:24:54;15.20;;;11.48;;
66272;SDS011;58450;52.150;4.466;2023-09-18T03:27:21;14.98;;;11.77;;
66272;SDS011;58450;52.150;4.466;2023-09-18T03:29:54;17.53;;;12.47;;
66272;SDS011;58450;52.150;4.466;2023-09-18T03:32:22;16.02;;;12.38;;
66272;SDS011;58450;52.150;4.466;2023-09-18T03:34:50;15.63;;;11.95;;
66272;SDS011;58450;52.150;4.466;2023-09-18T03:37:18;15.45;;;11.88;;
66272;SDS011;58450;52.150;4.466;2023-09-18T03:39:45;18.67;;;13.50;;
66272;SDS011;58450;52.150;4.466;2023-09-18T03:42:14;18.73;;;14.35;;
66272;SDS011;58450;52.150;4.466;2023-09-18T03:44:42;19.38;;;14.65;;
66272;SDS011;58450;52.150;4.466;2023-09-18T03:47:10;17.10;;;13.32;;
66272;SDS011;58450;52.150;4.466;2023-09-18T03:49:37;16.17;;;13.30;;
66272;SDS011;58450;52.150;4.466;2023-09-18T03:52:05;17.52;;;13.82;;
66272;SDS011;58450;52.150;4.466;2023-09-18T03:54:32;17.67;;;13.95;;
66272;SDS011;58450;52.150;4.466;2023-09-18T03:57:00;17.63;;;14.20;;
66272;SDS011;58450;52.150;4.466;2023-09-18T03:59:29;19.05;;;14.20;;
66272;SDS011;58450;52.150;4.466;2023-09-18T04:01:56;17.95;;;13.75;;
66272;SDS011;58450;52.150;4.466;2023-09-18T04:04:24;18.67;;;13.63;;
66272;SDS011;58450;52.150;4.466;2023-09-18T04:06:53;17.92;;;13.90;;
66272;SDS011;58450;52.150;4.466;2023-09-18T04:09:21;18.75;;;13.65;;
66272;SDS011;58450;52.150;4.466;2023-09-18T04:11:48;17.55;;;13.20;;
66272;SDS011;58450;52.150;4.466;2023-09-18T04:14:16;21.30;;;14.85;;
66272;SDS011;58450;52.150;4.466;2023-09-18T04:16:45;19.38;;;15.35;;
66272;SDS011;58450;52.150;4.466;2023-09-18T04:19:13;20.63;;;13.43;;
66272;SDS011;58450;52.150;4.466;2023-09-18T04:21:40;18.15;;;13.20;;
66272;SDS011;58450;52.150;4.466;2023-09-18T04:24:08;19.83;;;12.85;;
66272;SDS011;58450;52.150;4.466;2023-09-18T04:26:35;15.73;;;10.85;;
66272;SDS011;58450;52.150;4.466;2023-09-18T04:29:03;15.70;;;9.15;;
66272;SDS011;58450;52.150;4.466;2023-09-18T04:31:31;14.25;;;9.00;;
66272;SDS011;58450;52.150;4.466;2023-09-18T04:34:00;11.77;;;8.80;;
66272;SDS011;58450;52.150;4.466;2023-09-18T04:36:28;14.32;;;8.77;;
66272;SDS011;58450;52.150;4.466;2023-09-18T04:38:57;14.30;;;7.60;;
66272;SDS011;58450;52.150;4.466;2023-09-18T04:41:25;12.70;;;7.60;;
66272;SDS011;58450;52.150;4.466;2023-09-18T04:43:53;12.10;;;7.55;;
66272;SDS011;58450;52.150;4.466;2023-09-18T04:46:21;10.18;;;7.13;;
66272;SDS011;58450;52.150;4.466;2023-09-18T04:48:49;8.93;;;6.28;;
66272;SDS011;58450;52.150;4.466;2023-09-18T04:51:18;8.93;;;6.47;;
66272;SDS011;58450;52.150;4.466;2023-09-18T04:53:46;11.63;;;6.53;;
66272;SDS011;58450;52.150;4.466;2023-09-18T04:56:13;9.45;;;6.25;;
66272;SDS011;58450;52.150;4.466;2023-09-18T04:58:41;11.02;;;6.13;;
66272;SDS011;58450;52.150;4.466;2023-09-18T05:01:08;10.23;;;6.35;;
66272;SDS011;58450;52.150;4.466;2023-09-18T05:03:36;11.10;;;7.15;;
66272;SDS011;58450;52.150;4.466;2023-09-18T05:06:04;12.18;;;7.30;;
66272;SDS011;58450;52.150;4.466;2023-09-18T05:08:33;12.68;;;8.18;;
66272;SDS011;58450;52.150;4.466;2023-09-18T05:11:01;11.55;;;7.07;;
66272;SDS011;58450;52.150;4.466;2023-09-18T05:13:28;11.90;;;7.60;;
66272;SDS011;58450;52.150;4.466;2023-09-18T05:15:56;13.40;;;8.00;;
66272;SDS011;58450;52.150;4.466;2023-09-18T05:18:24;12.35;;;8.77;;
66272;SDS011;58450;52.150;4.466;2023-09-18T05:20:52;13.00;;;9.38;;
66272;SDS011;58450;52.150;4.466;2023-09-18T05:23:20;12.07;;;8.68;;
66272;SDS011;58450;52.150;4.466;2023-09-18T05:25:49;15.57;;;8.95;;
66272;SDS011;58450;52.150;4.466;2023-09-18T05:28:16;16.73;;;10.15;;
66272;SDS011;58450;52.150;4.466;2023-09-18T05:30:44;14.50;;;9.98;;
66272;SDS011;58450;52.150;4.466;2023-09-18T05:33:12;15.93;;;10.95;;
66272;SDS011;58450;52.150;4.466;2023-09-18T05:35:40;17.60;;;11.20;;
66272;SDS011;58450;52.150;4.466;2023-09-18T05:38:10;17.92;;;12.35;;
66272;SDS011;58450;52.150;4.466;2023-09-18T05:40:40;18.98;;;12.88;;
66272;SDS011;58450;52.150;4.466;2023-09-18T05:43:10;16.48;;;12.30;;
66272;SDS011;58450;52.150;4.466;2023-09-18T05:45:38;18.27;;;12.10;;
66272;SDS011;58450;52.150;4.466;2023-09-18T05:48:06;16.17;;;11.93;;
66272;SDS011;58450;52.150;4.466;2023-09-18T05:50:35;14.95;;;11.43;;
66272;SDS011;58450;52.150;4.466;2023-09-18T05:53:03;15.60;;;11.10;;
66272;SDS011;58450;52.150;4.466;2023-09-18T05:55:31;15.32;;;11.43;;
66272;SDS011;58450;52.150;4.466;2023-09-18T05:57:59;14.13;;;9.90;;
66272;SDS011;58450;52.150;4.466;2023-09-18T06:00:28;15.02;;;10.65;;
66272;SDS011;58450;52.150;4.466;2023-09-18T06:02:56;13.18;;;9.57;;
66272;SDS011;58450;52.150;4.466;2023-09-18T06:05:24;13.23;;;8.88;;
66272;SDS011;58450;52.150;4.466;2023-09-18T06:07:52;14.35;;;9.18;;
66272;SDS011;58450;52.150;4.466;2023-09-18T06:10:20;13.30;;;8.93;;
66272;SDS011;58450;52.150;4.466;2023-09-18T06:12:47;13.05;;;8.85;;
66272;SDS011;58450;52.150;4.466;2023-09-18T06:15:15;12.73;;;9.70;;
66272;SDS011;58450;52.150;4.466;2023-09-18T06:17:44;12.70;;;9.40;;
66272;SDS011;58450;52.150;4.466;2023-09-18T06:20:11;12.43;;;8.63;;
66272;SDS011;58450;52.150;4.466;2023-09-18T06:22:40;11.48;;;8.63;;
66272;SDS011;58450;52.150;4.466;2023-09-18T06:25:08;13.60;;;9.35;;
66272;SDS011;58450;52.150;4.466;2023-09-18T06:27:36;12.48;;;9.27;;
66272;SDS011;58450;52.150;4.466;2023-09-18T06:30:05;13.93;;;9.00;;
66272;SDS011;58450;52.150;4.466;2023-09-18T06:32:34;14.73;;;10.65;;
66272;SDS011;58450;52.150;4.466;2023-09-18T06:35:04;13.48;;;9.93;;
66272;SDS011;58450;52.150;4.466;2023-09-18T06:37:32;13.95;;;9.75;;
66272;SDS011;58450;52.150;4.466;2023-09-18T06:40:00;15.55;;;10.27;;
66272;SDS011;58450;52.150;4.466;2023-09-18T06:42:29;17.83;;;11.80;;
66272;SDS011;58450;52.150;4.466;2023-09-18T06:44:57;14.02;;;10.75;;
66272;SDS011;58450;52.150;4.466;2023-09-18T06:47:25;15.68;;;11.23;;
66272;SDS011;58450;52.150;4.466;2023-09-18T06:49:52;15.45;;;11.15;;
66272;SDS011;58450;52.150;4.466;2023-09-18T06:52:21;13.18;;;9.70;;
66272;SDS011;58450;52.150;4.466;2023-09-18T06:54:50;16.98;;;13.13;;
66272;SDS011;58450;52.150;4.466;2023-09-18T06:57:18;15.05;;;10.98;;
66272;SDS011;58450;52.150;4.466;2023-09-18T06:59:46;14.40;;;10.50;;
66272;SDS011;58450;52.150;4.466;2023-09-18T07:02:14;14.52;;;10.95;;
66272;SDS011;58450;52.150;4.466;2023-09-18T07:04:42;13.55;;;10.68;;
66272;SDS011;58450;52.150;4.466;2023-09-18T07:07:11;14.07;;;9.75;;
66272;SDS011;58450;52.150;4.466;2023-09-18T07:09:41;14.85;;;10.00;;
66272;SDS011;58450;52.150;4.466;2023-09-18T07:12:09;12.88;;;8.57;;
66272;SDS011;58450;52.150;4.466;2023-09-18T07:14:36;11.93;;;8.88;;
66272;SDS011;58450;52.150;4.466;2023-09-18T07:17:04;13.32;;;8.73;;
66272;SDS011;58450;52.150;4.466;2023-09-18T07:19:32;11.93;;;8.27;;
66272;SDS011;58450;52.150;4.466;2023-09-18T07:21:59;10.68;;;7.85;;
66272;SDS011;58450;52.150;4.466;2023-09-18T07:24:27;10.30;;;6.93;;
66272;SDS011;58450;52.150;4.466;2023-09-18T07:26:56;9.70;;;6.78;;
66272;SDS011;58450;52.150;4.466;2023-09-18T07:29:24;14.18;;;6.60;;
66272;SDS011;58450;52.150;4.466;2023-09-18T07:31:52;10.05;;;5.90;;
66272;SDS011;58450;52.150;4.466;2023-09-18T07:34:19;8.80;;;5.32;;
66272;SDS011;58450;52.150;4.466;2023-09-18T07:36:47;8.68;;;5.05;;
66272;SDS011;58450;52.150;4.466;2023-09-18T07:39:19;8.05;;;5.10;;
66272;SDS011;58450;52.150;4.466;2023-09-18T07:41:47;7.88;;;4.70;;
66272;SDS011;58450;52.150;4.466;2023-09-18T07:44:19;6.40;;;4.50;;
66272;SDS011;58450;52.150;4.466;2023-09-18T07:46:48;7.82;;;4.43;;
66272;SDS011;58450;52.150;4.466;2023-09-18T07:49:15;8.32;;;3.90;;
66272;SDS011;58450;52.150;4.466;2023-09-18T07:51:43;6.63;;;3.75;;
66272;SDS011;58450;52.150;4.466;2023-09-18T07:54:13;8.07;;;3.60;;
66272;SDS011;58450;52.150;4.466;2023-09-18T07:56:41;5.50;;;3.38;;
66272;SDS011;58450;52.150;4.466;2023-09-18T07:59:09;6.25;;;3.60;;
66272;SDS011;58450;52.150;4.466;2023-09-18T08:01:38;6.15;;;3.20;;
66272;SDS011;58450;52.150;4.466;2023-09-18T08:04:06;5.00;;;3.00;;
66272;SDS011;58450;52.150;4.466;2023-09-18T08:06:33;5.35;;;2.92;;
66272;SDS011;58450;52.150;4.466;2023-09-18T08:09:01;4.50;;;2.85;;
66272;SDS011;58450;52.150;4.466;2023-09-18T08:11:30;7.30;;;2.80;;
66272;SDS011;58450;52.150;4.466;2023-09-18T08:13:58;4.25;;;2.50;;
66272;SDS011;58450;52.150;4.466;2023-09-18T08:16:26;5.55;;;2.65;;
66272;SDS011;58450;52.150;4.466;2023-09-18T08:18:55;6.00;;;2.58;;
66272;SDS011;58450;52.150;4.466;2023-09-18T08:21:22;3.83;;;2.03;;
66272;SDS011;58450;52.150;4.466;2023-09-18T08:23:50;3.38;;;1.70;;
66272;SDS011;58450;52.150;4.466;2023-09-18T08:26:18;3.95;;;2.03;;
66272;SDS011;58450;52.150;4.466;2023-09-18T08:28:46;6.13;;;2.33;;
66272;SDS011;58450;52.150;4.466;2023-09-18T08:31:13;4.00;;;2.00;;
66272;SDS011;58450;52.150;4.466;2023-09-18T08:33:42;5.05;;;2.00;;
66272;SDS011;58450;52.150;4.466;2023-09-18T08:36:11;5.85;;;2.00;;
66272;SDS011;58450;52.150;4.466;2023-09-18T08:38:38;3.72;;;1.67;;
66272;SDS011;58450;52.150;4.466;2023-09-18T08:41:06;5.07;;;2.10;;
66272;SDS011;58450;52.150;4.466;2023-09-18T08:43:35;5.28;;;2.10;;
66272;SDS011;58450;52.150;4.466;2023-09-18T08:46:06;4.70;;;2.20;;
66272;SDS011;58450;52.150;4.466;2023-09-18T08:48:33;4.25;;;2.17;;
66272;SDS011;58450;52.150;4.466;2023-09-18T08:51:03;4.13;;;2.30;;
66272;SDS011;58450;52.150;4.466;2023-09-18T08:53:34;3.25;;;2.00;;
66272;SDS011;58450;52.150;4.466;2023-09-18T08:56:04;5.82;;;2.40;;
66272;SDS011;58450;52.150;4.466;2023-09-18T08:58:33;6.88;;;2.60;;
66272;SDS011;58450;52.150;4.466;2023-09-18T09:01:05;7.83;;;2.70;;
66272;SDS011;58450;52.150;4.466;2023-09-18T09:03:37;4.90;;;2.50;;
66272;SDS011;58450;52.150;4.466;2023-09-18T09:06:05;3.70;;;1.80;;
66272;SDS011;58450;52.150;4.466;2023-09-18T09:08:35;5.35;;;2.38;;
66272;SDS011;58450;52.150;4.466;2023-09-18T09:11:03;5.25;;;2.75;;
66272;SDS011;58450;52.150;4.466;2023-09-18T09:13:31;6.40;;;2.70;;
66272;SDS011;58450;52.150;4.466;2023-09-18T09:15:59;4.65;;;2.63;;
66272;SDS011;58450;52.150;4.466;2023-09-18T09:18:27;4.47;;;2.55;;
66272;SDS011;58450;52.150;4.466;2023-09-18T09:20:57;6.82;;;2.90;;
66272;SDS011;58450;52.150;4.466;2023-09-18T09:23:29;6.88;;;3.08;;
66272;SDS011;58450;52.150;4.466;2023-09-18T09:26:16;5.20;;;2.97;;
66272;SDS011;58450;52.150;4.466;2023-09-18T09:28:46;6.90;;;3.05;;
66272;SDS011;58450;52.150;4.466;2023-09-18T09:31:24;6.45;;;3.00;;
66272;SDS011;58450;52.150;4.466;2023-09-18T09:33:53;6.05;;;2.72;;
66272;SDS011;58450;52.150;4.466;2023-09-18T09:36:21;3.60;;;2.47;;
66272;SDS011;58450;52.150;4.466;2023-09-18T09:38:54;4.80;;;2.83;;
66272;SDS011;58450;52.150;4.466;2023-09-18T09:41:23;4.97;;;2.58;;
66272;SDS011;58450;52.150;4.466;2023-09-18T09:43:51;3.42;;;2.55;;
66272;SDS011;58450;52.150;4.466;2023-09-18T09:46:21;5.20;;;2.40;;
66272;SDS011;58450;52.150;4.466;2023-09-18T09:48:57;4.20;;;2.33;;
66272;SDS011;58450;52.150;4.466;2023-09-18T09:51:31;5.07;;;2.33;;
66272;SDS011;58450;52.150;4.466;2023-09-18T09:54:01;4.13;;;2.05;;
66272;SDS011;58450;52.150;4.466;2023-09-18T09:56:41;6.15;;;2.17;;
66272;SDS011;58450;52.150;4.466;2023-09-18T09:59:12;3.40;;;2.10;;
66272;SDS011;58450;52.150;4.466;2023-09-18T10:01:41;4.20;;;1.98;;
66272;SDS011;58450;52.150;4.466;2023-09-18T10:04:12;5.88;;;2.50;;
66272;SDS011;58450;52.150;4.466;2023-09-18T10:06:43;4.72;;;2.10;;
66272;SDS011;58450;52.150;4.466;2023-09-18T10:09:19;2.72;;;2.10;;
66272;SDS011;58450;52.150;4.466;2023-09-18T10:11:51;4.53;;;2.17;;
66272;SDS011;58450;52.150;4.466;2023-09-18T10:14:23;3.67;;;2.22;;
66272;SDS011;58450;52.150;4.466;2023-09-18T10:16:59;5.40;;;2.25;;
66272;SDS011;58450;52.150;4.466;2023-09-18T10:19:39;5.65;;;2.50;;
66272;SDS011;58450;52.150;4.466;2023-09-18T10:22:13;2.72;;;2.00;;
66272;SDS011;58450;52.150;4.466;2023-09-18T10:24:54;5.25;;;2.60;;
66272;SDS011;58450;52.150;4.466;2023-09-18T10:27:33;4.03;;;2.33;;
66272;SDS011;58450;52.150;4.466;2023-09-18T10:30:05;3.25;;;2.22;;
66272;SDS011;58450;52.150;4.466;2023-09-18T10:35:07;5.68;;;2.22;;
66272;SDS011;58450;52.150;4.466;2023-09-18T10:37:36;3.58;;;2.10;;
66272;SDS011;58450;52.150;4.466;2023-09-18T10:40:07;6.47;;;2.70;;
66272;SDS011;58450;52.150;4.466;2023-09-18T10:42:37;4.35;;;2.30;;
66272;SDS011;58450;52.150;4.466;2023-09-18T10:45:08;5.00;;;2.40;;
66272;SDS011;58450;52.150;4.466;2023-09-18T10:47:38;4.80;;;2.15;;
66272;SDS011;58450;52.150;4.466;2023-09-18T10:50:11;5.47;;;2.40;;
66272;SDS011;58450;52.150;4.466;2023-09-18T10:52:42;3.78;;;2.10;;
66272;SDS011;58450;52.150;4.466;2023-09-18T10:55:13;4.32;;;2.10;;
66272;SDS011;58450;52.150;4.466;2023-09-18T10:57:49;3.65;;;2.05;;
66272;SDS011;58450;52.150;4.466;2023-09-18T11:00:18;4.03;;;2.17;;
66272;SDS011;58450;52.150;4.466;2023-09-18T11:02:49;3.75;;;2.03;;
66272;SDS011;58450;52.150;4.466;2023-09-18T11:05:31;4.70;;;2.00;;
66272;SDS011;58450;52.150;4.466;2023-09-18T11:11:01;3.53;;;1.98;;
66272;SDS011;58450;52.150;4.466;2023-09-18T11:13:38;6.07;;;2.17;;
66272;SDS011;58450;52.150;4.466;2023-09-18T11:16:18;4.18;;;1.60;;
66272;SDS011;58450;52.150;4.466;2023-09-18T11:19:10;4.63;;;2.10;;
66272;SDS011;58450;52.150;4.466;2023-09-18T11:21:43;3.03;;;1.80;;
66272;SDS011;58450;52.150;4.466;2023-09-18T11:24:17;4.45;;;1.85;;
66272;SDS011;58450;52.150;4.466;2023-09-18T11:26:50;3.92;;;1.80;;
66272;SDS011;58450;52.150;4.466;2023-09-18T11:29:21;3.38;;;1.65;;
66272;SDS011;58450;52.150;4.466;2023-09-18T11:31:53;2.50;;;1.60;;
66272;SDS011;58450;52.150;4.466;2023-09-18T11:34:23;5.28;;;1.88;;
66272;SDS011;58450;52.150;4.466;2023-09-18T11:36:54;3.33;;;1.52;;
66272;SDS011;58450;52.150;4.466;2023-09-18T11:39:35;2.78;;;1.52;;
66272;SDS011;58450;52.150;4.466;2023-09-18T11:42:08;2.15;;;1.52;;
66272;SDS011;58450;52.150;4.466;2023-09-18T11:44:38;2.92;;;1.45;;
66272;SDS011;58450;52.150;4.466;2023-09-18T11:47:12;3.20;;;1.45;;
66272;SDS011;58450;52.150;4.466;2023-09-18T11:52:24;4.95;;;1.75;;
66272;SDS011;58450;52.150;4.466;2023-09-18T11:54:55;5.07;;;1.70;;
66272;SDS011;58450;52.150;4.466;2023-09-18T11:57:26;4.13;;;2.08;;
66272;SDS011;58450;52.150;4.466;2023-09-18T11:59:55;3.75;;;1.60;;
66272;SDS011;58450;52.150;4.466;2023-09-18T12:02:25;6.88;;;2.05;;
66272;SDS011;58450;52.150;4.466;2023-09-18T12:05:04;3.97;;;1.65;;
66272;SDS011;58450;52.150;4.466;2023-09-18T12:07:32;3.30;;;1.60;;
66272;SDS011;58450;52.150;4.466;2023-09-18T12:10:00;2.75;;;1.55;;
66272;SDS011;58450;52.150;4.466;2023-09-18T12:12:34;2.88;;;1.83;;
66272;SDS011;58450;52.150;4.466;2023-09-18T12:15:02;3.25;;;1.60;;
66272;SDS011;58450;52.150;4.466;2023-09-18T12:17:30;3.97;;;1.80;;
66272;SDS011;58450;52.150;4.466;2023-09-18T12:19:58;3.38;;;1.50;;
66272;SDS011;58450;52.150;4.466;2023-09-18T12:22:26;3.15;;;1.77;;
66272;SDS011;58450;52.150;4.466;2023-09-18T12:25:07;3.35;;;1.88;;
66272;SDS011;58450;52.150;4.466;2023-09-18T12:27:37;4.00;;;1.85;;
66272;SDS011;58450;52.150;4.466;2023-09-18T12:30:05;4.70;;;1.80;;
66272;SDS011;58450;52.150;4.466;2023-09-18T12:32:35;4.13;;;1.80;;
66272;SDS011;58450;52.150;4.466;2023-09-18T12:35:05;3.05;;;1.67;;
66272;SDS011;58450;52.150;4.466;2023-09-18T12:37:33;4.90;;;1.95;;
66272;SDS011;58450;52.150;4.466;2023-09-18T12:40:02;4.40;;;1.70;;
66272;SDS011;58450;52.150;4.466;2023-09-18T12:42:37;3.30;;;1.52;;
66272;SDS011;58450;52.150;4.466;2023-09-18T12:45:07;5.18;;;1.88;;
66272;SDS011;58450;52.150;4.466;2023-09-18T12:47:37;2.70;;;2.10;;
66272;SDS011;58450;52.150;4.466;2023-09-18T12:50:06;6.25;;;2.10;;
66272;SDS011;58450;52.150;4.466;2023-09-18T12:52:36;3.90;;;2.10;;
66272;SDS011;58450;52.150;4.466;2023-09-18T12:55:04;3.00;;;2.00;;
66272;SDS011;58450;52.150;4.466;2023-09-18T12:57:32;4.78;;;1.90;;
66272;SDS011;58450;52.150;4.466;2023-09-18T13:00:09;6.10;;;1.80;;
66272;SDS011;58450;52.150;4.466;2023-09-18T13:02:38;4.35;;;2.05;;
66272;SDS011;58450;52.150;4.466;2023-09-18T13:05:06;4.13;;;1.77;;
66272;SDS011;58450;52.150;4.466;2023-09-18T13:07:42;3.72;;;1.75;;
66272;SDS011;58450;52.150;4.466;2023-09-18T13:10:11;4.30;;;1.77;;
66272;SDS011;58450;52.150;4.466;2023-09-18T13:12:41;5.47;;;2.00;;
66272;SDS011;58450;52.150;4.466;2023-09-18T13:15:14;4.05;;;1.73;;
66272;SDS011;58450;52.150;4.466;2023-09-18T13:17:53;3.25;;;1.30;;
66272;SDS011;58450;52.150;4.466;2023-09-18T13:20:21;5.10;;;1.50;;
66272;SDS011;58450;52.150;4.466;2023-09-18T13:22:53;5.10;;;1.55;;
66272;SDS011;58450;52.150;4.466;2023-09-18T13:25:23;4.05;;;1.40;;
66272;SDS011;58450;52.150;4.466;2023-09-18T13:27:56;4.15;;;1.50;;
66272;SDS011;58450;52.150;4.466;2023-09-18T13:30:25;3.50;;;1.35;;
66272;SDS011;58450;52.150;4.466;2023-09-18T13:33:01;2.75;;;1.63;;
66272;SDS011;58450;52.150;4.466;2023-09-18T13:35:31;3.80;;;1.70;;
66272;SDS011;58450;52.150;4.466;2023-09-18T13:38:00;2.85;;;1.80;;
66272;SDS011;58450;52.150;4.466;2023-09-18T13:40:30;3.10;;;1.73;;
66272;SDS011;58450;52.150;4.466;2023-09-18T13:42:59;4.28;;;1.70;;
66272;SDS011;58450;52.150;4.466;2023-09-18T13:45:28;5.80;;;1.92;;
66272;SDS011;58450;52.150;4.466;2023-09-18T13:47:55;3.72;;;2.00;;
66272;SDS011;58450;52.150;4.466;2023-09-18T13:50:23;5.03;;;2.00;;
66272;SDS011;58450;52.150;4.466;2023-09-18T13:52:51;4.55;;;2.10;;
66272;SDS011;58450;52.150;4.466;2023-09-18T13:55:19;5.15;;;2.20;;
66272;SDS011;58450;52.150;4.466;2023-09-18T13:57:47;2.42;;;1.80;;
66272;SDS011;58450;52.150;4.466;2023-09-18T14:00:15;3.22;;;2.00;;
66272;SDS011;58450;52.150;4.466;2023-09-18T14:02:45;4.93;;;2.20;;
66272;SDS011;58450;52.150;4.466;2023-09-18T14:05:12;6.10;;;2.03;;
66272;SDS011;58450;52.150;4.466;2023-09-18T14:07:40;6.95;;;2.25;;
66272;SDS011;58450;52.150;4.466;2023-09-18T14:10:08;5.25;;;2.00;;
66272;SDS011;58450;52.150;4.466;2023-09-18T14:12:37;3.72;;;2.10;;
66272;SDS011;58450;52.150;4.466;2023-09-18T14:15:06;5.10;;;2.20;;
66272;SDS011;58450;52.150;4.466;2023-09-18T14:17:35;5.55;;;2.13;;
66272;SDS011;58450;52.150;4.466;2023-09-18T14:20:06;5.82;;;2.28;;
66272;SDS011;58450;52.150;4.466;2023-09-18T14:22:35;6.45;;;2.38;;
66272;SDS011;58450;52.150;4.466;2023-09-18T14:25:03;5.57;;;2.88;;
66272;SDS011;58450;52.150;4.466;2023-09-18T14:27:32;5.43;;;2.70;;
66272;SDS011;58450;52.150;4.466;2023-09-18T14:30:00;4.18;;;2.30;;
66272;SDS011;58450;52.150;4.466;2023-09-18T14:32:32;4.38;;;2.50;;
66272;SDS011;58450;52.150;4.466;2023-09-18T14:35:01;6.22;;;2.15;;
66272;SDS011;58450;52.150;4.466;2023-09-18T14:37:32;5.47;;;1.70;;
66272;SDS011;58450;52.150;4.466;2023-09-18T14:40:00;3.75;;;1.52;;
66272;SDS011;58450;52.150;4.466;2023-09-18T14:42:28;3.72;;;1.70;;
66272;SDS011;58450;52.150;4.466;2023-09-18T14:44:56;3.25;;;1.83;;
66272;SDS011;58450;52.150;4.466;2023-09-18T14:47:23;4.53;;;1.40;;
66272;SDS011;58450;52.150;4.466;2023-09-18T14:49:51;2.95;;;1.35;;
66272;SDS011;58450;52.150;4.466;2023-09-18T14:52:19;4.63;;;1.38;;
66272;SDS011;58450;52.150;4.466;2023-09-18T14:54:50;3.67;;;1.27;;
66272;SDS011;58450;52.150;4.466;2023-09-18T14:57:18;3.05;;;1.20;;